createdAt,value
2022-10-17T00:04:27.176Z,48.20
2022-10-17T00:09:29.459Z,48.00
2022-10-17T00:14:31.732Z,48.00
2022-10-17T00:19:34.067Z,47.80
2022-10-17T00:24:36.355Z,48.00
2022-10-17T00:29:38.639Z,48.10
2022-10-17T00:34:42.253Z,47.90
2022-10-17T00:39:44.532Z,48.20
2022-10-17T00:49:57.578Z,48.40
2022-10-17T00:55:12.661Z,48.30
2022-10-17T01:00:16.822Z,48.30
2022-10-17T01:05:20.122Z,47.90
2022-10-17T01:10:27.020Z,48.20
2022-10-17T01:16:09.025Z,48.10
2022-10-17T01:47:36.751Z,47.80
2022-10-17T01:52:45.116Z,47.60
2022-10-17T01:57:53.052Z,47.60
2022-10-17T02:03:00.352Z,47.70
2022-10-17T02:08:02.587Z,47.70
2022-10-17T02:24:32.570Z,47.90
2022-10-17T02:29:46.651Z,47.50
2022-10-17T02:34:53.011Z,47.70
2022-10-17T02:39:57.912Z,47.60
2022-10-17T02:45:02.515Z,47.90
2022-10-17T02:50:06.796Z,47.90
2022-10-17T02:55:31.266Z,47.50
2022-10-17T03:00:35.561Z,47.80
2022-10-17T03:05:38.066Z,47.60
2022-10-17T03:10:41.170Z,47.50
2022-10-17T03:15:44.228Z,47.80
2022-10-17T03:20:47.067Z,48.00
2022-10-17T03:25:49.860Z,47.90
2022-10-17T03:30:52.145Z,48.10
2022-10-17T03:35:54.493Z,48.20
2022-10-17T03:40:57.621Z,48.00
2022-10-17T03:46:01.254Z,47.90
2022-10-17T03:51:07.093Z,47.80
2022-10-17T03:56:17.703Z,47.60
2022-10-17T04:01:25.072Z,47.80
2022-10-17T04:06:27.593Z,48.10
2022-10-17T04:11:30.023Z,48.00
2022-10-17T04:16:35.469Z,48.10
2022-10-17T04:21:44.616Z,48.10
2022-10-17T04:26:51.104Z,48.00
2022-10-17T04:31:56.056Z,47.90
2022-10-17T04:37:06.584Z,48.00
2022-10-17T04:42:09.893Z,47.90
2022-10-17T04:47:12.332Z,47.80
2022-10-17T04:52:14.864Z,48.00
2022-10-17T04:57:20.447Z,48.30
2022-10-17T05:02:38.377Z,48.30
2022-10-17T05:07:41.275Z,48.40
2022-10-17T05:12:51.430Z,48.40
2022-10-17T05:17:57.413Z,48.30
2022-10-17T05:23:02.698Z,48.50
2022-10-17T05:28:11.136Z,48.60
2022-10-17T05:33:17.377Z,49.00
2022-10-17T05:38:20.985Z,49.20
2022-10-17T05:43:25.423Z,49.20
2022-10-17T05:48:28.493Z,49.40
2022-10-17T05:53:33.370Z,49.20
2022-10-17T05:58:50.279Z,49.60
2022-10-17T06:04:13.683Z,49.80
2022-10-17T06:09:16.385Z,50.30
2022-10-17T06:14:22.733Z,50.80
2022-10-17T06:19:28.818Z,51.40
2022-10-17T06:24:31.713Z,52.10
2022-10-17T06:29:37.996Z,52.30
2022-10-17T06:34:41.651Z,52.00
2022-10-17T06:39:45.101Z,51.90
2022-10-17T06:44:50.864Z,51.50
2022-10-17T06:50:13.023Z,51.70
2022-10-17T06:55:24.742Z,51.40
2022-10-17T07:00:43.204Z,51.00
2022-10-17T07:05:52.631Z,50.80
2022-10-17T07:10:55.686Z,50.80
2022-10-17T07:16:01.850Z,51.20
2022-10-17T07:21:08.681Z,51.50
2022-10-17T07:26:14.035Z,53.50
2022-10-17T07:31:19.530Z,49.50
2022-10-17T07:36:21.792Z,51.00
2022-10-17T07:41:24.901Z,49.00
2022-10-17T07:46:27.211Z,48.00
2022-10-17T07:51:31.284Z,48.10
2022-10-17T07:56:33.438Z,46.00
2022-10-17T08:01:35.598Z,44.40
2022-10-17T08:06:37.932Z,45.70
2022-10-17T08:11:40.173Z,43.10
2022-10-17T08:16:42.579Z,44.80
2022-10-17T08:21:46.936Z,44.90
2022-10-17T08:26:51.673Z,42.50
2022-10-17T08:31:58.554Z,41.90
2022-10-17T08:37:03.808Z,37.40
2022-10-17T08:47:24.764Z,38.40
2022-10-17T08:57:38.645Z,38.50
2022-10-17T09:18:32.796Z,40.90
2022-10-17T09:23:53.300Z,43.50
2022-10-17T09:29:02.300Z,43.80
2022-10-17T09:34:04.589Z,44.10
2022-10-17T09:39:16.493Z,44.70
2022-10-17T09:44:22.507Z,44.80
2022-10-17T09:49:34.937Z,45.40
2022-10-17T09:54:45.945Z,46.30
2022-10-17T10:05:17.783Z,47.20
2022-10-17T10:10:27.767Z,47.30
2022-10-17T10:15:36.017Z,48.20
2022-10-17T10:20:38.388Z,49.10
2022-10-17T10:26:03.364Z,49.30
2022-10-17T10:31:08.901Z,49.40
2022-10-17T10:36:11.390Z,48.90
2022-10-17T10:41:13.724Z,50.00
2022-10-17T10:46:26.769Z,50.30
2022-10-17T10:51:34.436Z,51.10
2022-10-17T11:02:19.011Z,52.80
2022-10-17T11:12:39.274Z,54.20
2022-10-17T11:17:57.428Z,53.80
2022-10-17T11:23:19.832Z,54.40
2022-10-17T11:28:24.985Z,54.80
2022-10-17T11:33:35.128Z,54.50
2022-10-17T11:44:25.353Z,54.70
2022-10-17T11:49:38.206Z,54.70
2022-10-17T11:54:50.888Z,54.50
2022-10-17T12:22:00.280Z,55.30
2022-10-17T12:27:40.000Z,55.50
2022-10-17T12:38:27.059Z,56.10
2022-10-17T12:59:19.930Z,56.40
2022-10-17T13:04:22.780Z,55.90
2022-10-17T13:14:41.174Z,56.00
2022-10-17T13:19:45.999Z,55.90
2022-10-17T13:24:50.126Z,55.30
2022-10-17T13:29:52.502Z,55.20
2022-10-17T13:40:49.037Z,54.40
2022-10-17T13:45:54.075Z,55.00
2022-10-17T13:51:02.838Z,55.10
2022-10-17T14:01:17.477Z,55.00
2022-10-17T14:06:25.255Z,55.40
2022-10-17T14:11:39.471Z,55.50
2022-10-17T14:16:43.533Z,55.80
2022-10-17T14:21:49.548Z,55.90
2022-10-17T14:26:55.374Z,55.90
2022-10-17T14:32:02.808Z,57.00
2022-10-17T14:37:28.703Z,56.70
2022-10-17T14:42:31.183Z,56.80
2022-10-17T14:47:49.206Z,56.90
2022-10-17T14:58:29.478Z,57.10
2022-10-17T15:03:31.921Z,57.40
2022-10-17T15:08:34.364Z,57.70
2022-10-17T15:13:42.151Z,57.90
2022-10-17T15:18:47.314Z,57.70
2022-10-17T15:23:49.735Z,57.40
2022-10-17T15:28:53.294Z,57.50
2022-10-17T15:33:55.800Z,57.20
2022-10-17T15:39:00.765Z,57.20
2022-10-17T15:44:03.066Z,57.90
2022-10-17T15:49:07.895Z,57.90
2022-10-17T15:54:10.268Z,57.30
2022-10-17T15:59:18.018Z,57.20
2022-10-17T16:04:20.290Z,57.50
2022-10-17T16:09:22.513Z,57.10
2022-10-17T16:14:24.886Z,56.60
2022-10-17T16:19:30.050Z,57.00
2022-10-17T16:24:33.048Z,56.80
2022-10-17T16:29:35.494Z,57.20
2022-10-17T16:34:37.832Z,57.90
2022-10-17T16:39:40.165Z,57.20
2022-10-17T16:44:42.492Z,57.20
2022-10-17T16:49:45.597Z,57.20
2022-10-17T16:54:47.848Z,57.50
2022-10-17T16:59:50.490Z,56.90
2022-10-17T17:04:52.898Z,57.00
2022-10-17T17:09:56.457Z,57.40
2022-10-17T17:14:58.841Z,57.60
2022-10-17T17:20:01.130Z,57.50
2022-10-17T17:25:03.570Z,57.80
2022-10-17T17:30:06.421Z,57.70
2022-10-17T17:35:09.608Z,57.30
2022-10-17T17:40:12.340Z,57.70
2022-10-17T17:45:14.764Z,57.50
2022-10-17T17:50:17.259Z,57.00
2022-10-17T17:55:19.615Z,57.50
2022-10-17T18:00:21.964Z,57.30
2022-10-17T18:05:24.411Z,57.70
2022-10-17T18:10:29.667Z,57.70
2022-10-17T18:38:14.310Z,56.80
2022-10-17T18:43:17.806Z,60.00
2022-10-17T18:48:20.174Z,59.40
2022-10-17T18:53:44.273Z,59.10
2022-10-17T18:59:07.004Z,58.60
2022-10-17T19:04:29.347Z,58.50
2022-10-17T19:09:51.553Z,58.40
2022-10-17T19:15:13.676Z,58.20
2022-10-17T19:20:35.788Z,58.40
2022-10-17T19:26:07.935Z,58.30
2022-10-17T19:31:31.800Z,58.20
2022-10-17T19:36:55.814Z,58.50
2022-10-17T19:42:17.886Z,58.20
2022-10-17T19:47:40.595Z,58.10
2022-10-17T19:53:02.727Z,58.00
2022-10-17T19:58:26.102Z,58.10
2022-10-17T20:03:48.547Z,57.90
2022-10-17T20:09:15.691Z,57.90
2022-10-17T20:14:41.097Z,58.10
2022-10-17T20:20:08.537Z,58.00
2022-10-17T20:25:31.186Z,58.00
2022-10-17T20:30:53.703Z,57.90
2022-10-17T20:36:16.640Z,57.80
2022-10-17T20:41:39.039Z,58.00
2022-10-17T20:47:02.498Z,58.10
2022-10-17T20:52:25.274Z,58.10
2022-10-17T20:57:47.307Z,58.30
2022-10-17T21:03:09.921Z,58.40
2022-10-17T21:08:32.043Z,58.30
2022-10-17T21:19:06.546Z,58.80
2022-10-17T21:24:28.568Z,58.80
2022-10-17T21:29:50.727Z,59.10
2022-10-17T21:35:12.817Z,58.60
2022-10-17T21:40:34.863Z,58.50
2022-10-17T21:45:57.072Z,58.60
2022-10-17T21:51:21.664Z,58.50
2022-10-17T21:56:44.445Z,58.40
2022-10-17T22:01:47.184Z,58.30
2022-10-17T22:06:51.325Z,58.30
2022-10-17T22:11:56.670Z,58.10
2022-10-17T22:16:58.947Z,58.20
2022-10-17T22:22:01.219Z,58.00
2022-10-17T22:27:03.448Z,58.00
2022-10-17T22:32:05.778Z,58.10
2022-10-17T22:37:07.970Z,58.60
2022-10-17T22:42:10.181Z,57.90
2022-10-17T22:47:12.495Z,58.00
2022-10-17T22:52:14.959Z,57.80
2022-10-17T22:57:17.299Z,57.70
2022-10-17T23:02:19.532Z,57.70
2022-10-17T23:07:21.852Z,57.90
2022-10-17T23:12:24.162Z,57.50
2022-10-17T23:17:26.415Z,57.40
2022-10-17T23:22:28.908Z,57.20
2022-10-17T23:27:31.251Z,57.30
2022-10-17T23:32:33.647Z,57.30
2022-10-17T23:37:36.808Z,57.20
2022-10-17T23:42:39.058Z,57.30
2022-10-17T23:47:41.375Z,57.30
2022-10-17T23:52:43.743Z,57.20
2022-10-17T23:57:46.102Z,56.90
